Weather at Tres Lomas Airport

Public forecast

Using degrees Celsius for public forecast. Weather courtesy of forecast.io.

Closest aviation weather report (METAR) to Tres Lomas Airport

Report is more than 6 hours old.

Closest report is General Pico Airport, 61.9 nm (114.7 km) NW. Retrieved 2022/01/15 19:12 UTC (12 days ago):

SAZG 151912Z 23024G37KT 9999 +DUFU BKN030 BKN100 38/15 Q1001

Closest aviation forecast (TAF) to Tres Lomas Airport

Forecast is more than 12 hours old.

Closest forecast is Santa Rosa Airport, 67.9 nm (125.8 km) W. Retrieved 2022-01-24 00:21 UTC (4 days ago):

TAF SAZR 232300Z 2400/2424 07005KT CAVOK TX33/2418Z TN16/2408Z PROB40 2403/2406 6000 -TSRA FEW050CB BECMG 2407/2409 VRB03KT 5000 BR NSC BECMG 2411/2413 12005KT CAVOK